sensor_id;sensor_type;location;lat;lon;timestamp;P1;durP1;ratioP1;P2;durP2;ratioP2
55728;SDS011;41633;39.720;2.910;2023-05-07T00:01:15;8.15;;;2.22;;
55728;SDS011;41633;39.720;2.910;2023-05-07T00:03:41;7.28;;;2.50;;
55728;SDS011;41633;39.720;2.910;2023-05-07T00:06:07;9.52;;;2.17;;
55728;SDS011;41633;39.720;2.910;2023-05-07T00:08:33;7.57;;;2.20;;
55728;SDS011;41633;39.720;2.910;2023-05-07T00:10:59;7.18;;;2.42;;
55728;SDS011;41633;39.720;2.910;2023-05-07T00:13:25;7.88;;;2.35;;
55728;SDS011;41633;39.720;2.910;2023-05-07T00:15:52;8.75;;;2.40;;
55728;SDS011;41633;39.720;2.910;2023-05-07T00:18:18;8.15;;;2.17;;
55728;SDS011;41633;39.720;2.910;2023-05-07T00:20:47;6.00;;;2.13;;
55728;SDS011;41633;39.720;2.910;2023-05-07T00:23:13;6.70;;;2.28;;
55728;SDS011;41633;39.720;2.910;2023-05-07T00:25:39;6.90;;;2.00;;
55728;SDS011;41633;39.720;2.910;2023-05-07T00:28:05;8.43;;;2.25;;
55728;SDS011;41633;39.720;2.910;2023-05-07T00:30:32;11.15;;;2.53;;
55728;SDS011;41633;39.720;2.910;2023-05-07T00:32:58;7.78;;;2.00;;
55728;SDS011;41633;39.720;2.910;2023-05-07T00:35:24;6.22;;;2.40;;
55728;SDS011;41633;39.720;2.910;2023-05-07T00:37:50;6.90;;;2.10;;
55728;SDS011;41633;39.720;2.910;2023-05-07T00:40:16;8.50;;;2.45;;
55728;SDS011;41633;39.720;2.910;2023-05-07T00:42:42;6.88;;;2.05;;
55728;SDS011;41633;39.720;2.910;2023-05-07T00:45:15;7.35;;;2.20;;
55728;SDS011;41633;39.720;2.910;2023-05-07T00:47:41;7.00;;;2.30;;
55728;SDS011;41633;39.720;2.910;2023-05-07T00:50:08;7.45;;;2.17;;
55728;SDS011;41633;39.720;2.910;2023-05-07T00:52:35;6.43;;;2.10;;
55728;SDS011;41633;39.720;2.910;2023-05-07T00:55:04;7.40;;;2.58;;
55728;SDS011;41633;39.720;2.910;2023-05-07T00:57:32;8.10;;;2.05;;
55728;SDS011;41633;39.720;2.910;2023-05-07T00:59:58;7.32;;;2.03;;
55728;SDS011;41633;39.720;2.910;2023-05-07T01:02:25;7.15;;;2.10;;
55728;SDS011;41633;39.720;2.910;2023-05-07T01:04:51;10.13;;;2.08;;
55728;SDS011;41633;39.720;2.910;2023-05-07T01:07:17;7.03;;;2.10;;
55728;SDS011;41633;39.720;2.910;2023-05-07T01:09:43;7.47;;;2.42;;
55728;SDS011;41633;39.720;2.910;2023-05-07T01:12:10;7.63;;;2.03;;
55728;SDS011;41633;39.720;2.910;2023-05-07T01:14:36;5.25;;;1.73;;
55728;SDS011;41633;39.720;2.910;2023-05-07T01:17:02;6.18;;;2.05;;
55728;SDS011;41633;39.720;2.910;2023-05-07T01:19:28;6.75;;;1.95;;
55728;SDS011;41633;39.720;2.910;2023-05-07T01:21:56;6.88;;;1.90;;
55728;SDS011;41633;39.720;2.910;2023-05-07T01:24:27;6.18;;;2.17;;
55728;SDS011;41633;39.720;2.910;2023-05-07T01:26:53;7.18;;;1.92;;
55728;SDS011;41633;39.720;2.910;2023-05-07T01:29:19;4.88;;;1.65;;
55728;SDS011;41633;39.720;2.910;2023-05-07T01:31:45;7.53;;;2.30;;
55728;SDS011;41633;39.720;2.910;2023-05-07T01:34:12;6.80;;;2.15;;
55728;SDS011;41633;39.720;2.910;2023-05-07T01:36:39;6.32;;;1.90;;
55728;SDS011;41633;39.720;2.910;2023-05-07T01:39:06;4.85;;;1.80;;
55728;SDS011;41633;39.720;2.910;2023-05-07T01:41:32;5.85;;;1.67;;
55728;SDS011;41633;39.720;2.910;2023-05-07T01:43:59;6.75;;;1.63;;
55728;SDS011;41633;39.720;2.910;2023-05-07T01:46:26;6.70;;;2.00;;
55728;SDS011;41633;39.720;2.910;2023-05-07T01:48:52;6.22;;;1.67;;
55728;SDS011;41633;39.720;2.910;2023-05-07T01:51:19;5.32;;;1.65;;
55728;SDS011;41633;39.720;2.910;2023-05-07T01:53:46;5.55;;;1.80;;
55728;SDS011;41633;39.720;2.910;2023-05-07T01:56:16;6.50;;;1.92;;
55728;SDS011;41633;39.720;2.910;2023-05-07T01:58:43;8.07;;;2.05;;
55728;SDS011;41633;39.720;2.910;2023-05-07T02:01:10;7.07;;;1.90;;
55728;SDS011;41633;39.720;2.910;2023-05-07T02:03:37;7.00;;;2.03;;
55728;SDS011;41633;39.720;2.910;2023-05-07T02:06:03;6.00;;;1.73;;
55728;SDS011;41633;39.720;2.910;2023-05-07T02:08:29;7.93;;;2.20;;
55728;SDS011;41633;39.720;2.910;2023-05-07T02:10:56;7.80;;;2.10;;
55728;SDS011;41633;39.720;2.910;2023-05-07T02:13:22;9.02;;;2.30;;
55728;SDS011;41633;39.720;2.910;2023-05-07T02:15:49;7.15;;;2.13;;
55728;SDS011;41633;39.720;2.910;2023-05-07T02:18:16;7.22;;;1.92;;
55728;SDS011;41633;39.720;2.910;2023-05-07T02:20:42;7.03;;;2.13;;
55728;SDS011;41633;39.720;2.910;2023-05-07T02:23:09;6.72;;;1.95;;
55728;SDS011;41633;39.720;2.910;2023-05-07T02:25:35;5.75;;;1.65;;
55728;SDS011;41633;39.720;2.910;2023-05-07T02:28:01;6.25;;;1.67;;
55728;SDS011;41633;39.720;2.910;2023-05-07T02:30:27;6.93;;;1.77;;
55728;SDS011;41633;39.720;2.910;2023-05-07T02:32:53;6.55;;;1.88;;
55728;SDS011;41633;39.720;2.910;2023-05-07T02:35:19;6.78;;;1.80;;
55728;SDS011;41633;39.720;2.910;2023-05-07T02:37:46;6.47;;;2.05;;
55728;SDS011;41633;39.720;2.910;2023-05-07T02:40:12;6.07;;;2.17;;
55728;SDS011;41633;39.720;2.910;2023-05-07T02:42:38;5.93;;;1.85;;
55728;SDS011;41633;39.720;2.910;2023-05-07T02:45:04;7.90;;;2.10;;
55728;SDS011;41633;39.720;2.910;2023-05-07T02:47:31;6.57;;;2.20;;
55728;SDS011;41633;39.720;2.910;2023-05-07T02:49:57;7.30;;;1.92;;
55728;SDS011;41633;39.720;2.910;2023-05-07T02:52:23;6.15;;;1.88;;
55728;SDS011;41633;39.720;2.910;2023-05-07T02:54:49;6.22;;;2.10;;
55728;SDS011;41633;39.720;2.910;2023-05-07T02:57:15;7.65;;;2.00;;
55728;SDS011;41633;39.720;2.910;2023-05-07T02:59:42;6.32;;;1.70;;
55728;SDS011;41633;39.720;2.910;2023-05-07T03:02:08;7.97;;;2.00;;
55728;SDS011;41633;39.720;2.910;2023-05-07T03:04:34;4.82;;;1.83;;
55728;SDS011;41633;39.720;2.910;2023-05-07T03:07:00;8.50;;;2.03;;
55728;SDS011;41633;39.720;2.910;2023-05-07T03:09:27;5.10;;;1.55;;
55728;SDS011;41633;39.720;2.910;2023-05-07T03:11:53;6.18;;;1.70;;
55728;SDS011;41633;39.720;2.910;2023-05-07T03:14:19;6.57;;;1.90;;
55728;SDS011;41633;39.720;2.910;2023-05-07T03:16:46;10.35;;;1.88;;
55728;SDS011;41633;39.720;2.910;2023-05-07T03:19:12;7.15;;;2.00;;
55728;SDS011;41633;39.720;2.910;2023-05-07T03:21:38;8.40;;;1.95;;
55728;SDS011;41633;39.720;2.910;2023-05-07T03:24:04;5.55;;;1.85;;
55728;SDS011;41633;39.720;2.910;2023-05-07T03:26:30;8.27;;;2.08;;
55728;SDS011;41633;39.720;2.910;2023-05-07T03:28:57;8.13;;;1.83;;
55728;SDS011;41633;39.720;2.910;2023-05-07T03:31:23;4.97;;;1.75;;
55728;SDS011;41633;39.720;2.910;2023-05-07T03:33:53;6.90;;;1.80;;
55728;SDS011;41633;39.720;2.910;2023-05-07T03:36:22;5.72;;;1.85;;
55728;SDS011;41633;39.720;2.910;2023-05-07T03:38:49;7.10;;;2.10;;
55728;SDS011;41633;39.720;2.910;2023-05-07T03:41:15;6.05;;;1.70;;
55728;SDS011;41633;39.720;2.910;2023-05-07T03:43:41;8.48;;;2.08;;
55728;SDS011;41633;39.720;2.910;2023-05-07T03:46:07;6.43;;;1.88;;
55728;SDS011;41633;39.720;2.910;2023-05-07T03:48:34;7.03;;;2.28;;
55728;SDS011;41633;39.720;2.910;2023-05-07T03:51:00;6.88;;;1.90;;
55728;SDS011;41633;39.720;2.910;2023-05-07T03:53:26;8.18;;;2.08;;
55728;SDS011;41633;39.720;2.910;2023-05-07T03:55:52;4.95;;;1.48;;
55728;SDS011;41633;39.720;2.910;2023-05-07T03:58:18;6.53;;;2.10;;
55728;SDS011;41633;39.720;2.910;2023-05-07T04:00:44;5.78;;;1.80;;
55728;SDS011;41633;39.720;2.910;2023-05-07T04:03:10;7.22;;;2.03;;
55728;SDS011;41633;39.720;2.910;2023-05-07T04:05:37;5.97;;;1.80;;
55728;SDS011;41633;39.720;2.910;2023-05-07T04:08:03;9.10;;;2.42;;
55728;SDS011;41633;39.720;2.910;2023-05-07T04:10:29;5.68;;;1.90;;
55728;SDS011;41633;39.720;2.910;2023-05-07T04:12:55;7.47;;;1.77;;
55728;SDS011;41633;39.720;2.910;2023-05-07T04:15:23;8.73;;;2.10;;
55728;SDS011;41633;39.720;2.910;2023-05-07T04:17:49;6.32;;;1.80;;
55728;SDS011;41633;39.720;2.910;2023-05-07T04:20:15;6.03;;;2.00;;
55728;SDS011;41633;39.720;2.910;2023-05-07T04:22:42;7.43;;;1.85;;
55728;SDS011;41633;39.720;2.910;2023-05-07T04:25:09;9.40;;;2.10;;
55728;SDS011;41633;39.720;2.910;2023-05-07T04:27:35;8.15;;;2.17;;
55728;SDS011;41633;39.720;2.910;2023-05-07T04:30:02;7.40;;;2.05;;
55728;SDS011;41633;39.720;2.910;2023-05-07T04:32:29;7.22;;;1.92;;
55728;SDS011;41633;39.720;2.910;2023-05-07T04:34:56;8.20;;;2.38;;
55728;SDS011;41633;39.720;2.910;2023-05-07T04:37:22;9.18;;;2.13;;
55728;SDS011;41633;39.720;2.910;2023-05-07T04:39:48;7.05;;;1.83;;
55728;SDS011;41633;39.720;2.910;2023-05-07T04:42:15;8.15;;;2.10;;
55728;SDS011;41633;39.720;2.910;2023-05-07T04:44:41;6.10;;;1.60;;
55728;SDS011;41633;39.720;2.910;2023-05-07T04:47:07;6.00;;;1.65;;
55728;SDS011;41633;39.720;2.910;2023-05-07T04:49:33;7.45;;;1.40;;
55728;SDS011;41633;39.720;2.910;2023-05-07T04:51:59;10.18;;;1.75;;
55728;SDS011;41633;39.720;2.910;2023-05-07T04:54:26;6.70;;;1.85;;
55728;SDS011;41633;39.720;2.910;2023-05-07T04:56:52;6.38;;;1.60;;
55728;SDS011;41633;39.720;2.910;2023-05-07T04:59:18;8.20;;;1.67;;
55728;SDS011;41633;39.720;2.910;2023-05-07T05:01:44;5.38;;;1.67;;
55728;SDS011;41633;39.720;2.910;2023-05-07T05:04:11;8.27;;;2.20;;
55728;SDS011;41633;39.720;2.910;2023-05-07T05:06:38;5.35;;;1.70;;
55728;SDS011;41633;39.720;2.910;2023-05-07T05:09:04;7.72;;;2.20;;
55728;SDS011;41633;39.720;2.910;2023-05-07T05:11:30;8.52;;;2.53;;
55728;SDS011;41633;39.720;2.910;2023-05-07T05:13:56;10.05;;;2.25;;
55728;SDS011;41633;39.720;2.910;2023-05-07T05:16:23;6.43;;;1.60;;
55728;SDS011;41633;39.720;2.910;2023-05-07T05:18:49;8.88;;;1.98;;
55728;SDS011;41633;39.720;2.910;2023-05-07T05:21:17;7.30;;;2.00;;
55728;SDS011;41633;39.720;2.910;2023-05-07T05:23:43;5.60;;;1.73;;
55728;SDS011;41633;39.720;2.910;2023-05-07T05:26:09;6.80;;;1.55;;
55728;SDS011;41633;39.720;2.910;2023-05-07T05:28:36;6.45;;;2.00;;
55728;SDS011;41633;39.720;2.910;2023-05-07T05:31:02;7.55;;;1.90;;
55728;SDS011;41633;39.720;2.910;2023-05-07T05:33:28;7.53;;;1.98;;
55728;SDS011;41633;39.720;2.910;2023-05-07T05:35:54;7.60;;;2.00;;
55728;SDS011;41633;39.720;2.910;2023-05-07T05:38:20;8.60;;;2.33;;
55728;SDS011;41633;39.720;2.910;2023-05-07T05:40:46;6.60;;;1.85;;
55728;SDS011;41633;39.720;2.910;2023-05-07T05:43:13;7.22;;;2.10;;
55728;SDS011;41633;39.720;2.910;2023-05-07T05:45:39;7.55;;;1.92;;
55728;SDS011;41633;39.720;2.910;2023-05-07T05:48:05;8.20;;;2.40;;
55728;SDS011;41633;39.720;2.910;2023-05-07T05:50:33;7.25;;;2.17;;
55728;SDS011;41633;39.720;2.910;2023-05-07T05:53:01;7.07;;;2.08;;
55728;SDS011;41633;39.720;2.910;2023-05-07T05:55:27;7.82;;;2.13;;
55728;SDS011;41633;39.720;2.910;2023-05-07T05:57:53;6.90;;;1.75;;
55728;SDS011;41633;39.720;2.910;2023-05-07T06:00:20;6.35;;;1.73;;
55728;SDS011;41633;39.720;2.910;2023-05-07T06:02:49;7.78;;;2.10;;
55728;SDS011;41633;39.720;2.910;2023-05-07T06:05:15;7.28;;;1.88;;
55728;SDS011;41633;39.720;2.910;2023-05-07T06:07:41;6.22;;;1.98;;
55728;SDS011;41633;39.720;2.910;2023-05-07T06:10:08;6.57;;;2.00;;
55728;SDS011;41633;39.720;2.910;2023-05-07T06:12:34;5.65;;;1.73;;
55728;SDS011;41633;39.720;2.910;2023-05-07T06:15:00;8.18;;;2.40;;
55728;SDS011;41633;39.720;2.910;2023-05-07T06:17:26;10.43;;;2.63;;
55728;SDS011;41633;39.720;2.910;2023-05-07T06:19:52;6.97;;;2.17;;
55728;SDS011;41633;39.720;2.910;2023-05-07T06:22:19;7.97;;;2.63;;
55728;SDS011;41633;39.720;2.910;2023-05-07T06:24:45;8.38;;;2.70;;
55728;SDS011;41633;39.720;2.910;2023-05-07T06:27:11;11.73;;;4.22;;
55728;SDS011;41633;39.720;2.910;2023-05-07T06:29:37;11.07;;;2.85;;
55728;SDS011;41633;39.720;2.910;2023-05-07T06:32:07;8.88;;;2.60;;
55728;SDS011;41633;39.720;2.910;2023-05-07T06:34:33;7.43;;;2.53;;
55728;SDS011;41633;39.720;2.910;2023-05-07T06:36:59;8.15;;;2.80;;
55728;SDS011;41633;39.720;2.910;2023-05-07T06:39:26;8.05;;;2.55;;
55728;SDS011;41633;39.720;2.910;2023-05-07T06:41:52;6.22;;;2.10;;
55728;SDS011;41633;39.720;2.910;2023-05-07T06:44:18;6.35;;;2.08;;
55728;SDS011;41633;39.720;2.910;2023-05-07T06:46:44;7.53;;;2.00;;
55728;SDS011;41633;39.720;2.910;2023-05-07T06:49:12;7.57;;;2.13;;
55728;SDS011;41633;39.720;2.910;2023-05-07T06:51:38;7.63;;;2.80;;
55728;SDS011;41633;39.720;2.910;2023-05-07T06:54:04;6.07;;;2.10;;
55728;SDS011;41633;39.720;2.910;2023-05-07T06:56:31;10.63;;;2.20;;
55728;SDS011;41633;39.720;2.910;2023-05-07T06:58:57;4.60;;;1.75;;
55728;SDS011;41633;39.720;2.910;2023-05-07T07:01:23;6.80;;;2.17;;
55728;SDS011;41633;39.720;2.910;2023-05-07T07:03:49;7.10;;;2.20;;
55728;SDS011;41633;39.720;2.910;2023-05-07T07:06:16;7.05;;;2.00;;
55728;SDS011;41633;39.720;2.910;2023-05-07T07:08:42;4.93;;;1.60;;
55728;SDS011;41633;39.720;2.910;2023-05-07T07:11:09;7.70;;;3.03;;
55728;SDS011;41633;39.720;2.910;2023-05-07T07:13:35;7.38;;;2.20;;
55728;SDS011;41633;39.720;2.910;2023-05-07T07:16:02;4.90;;;1.80;;
55728;SDS011;41633;39.720;2.910;2023-05-07T07:18:28;5.40;;;1.88;;
55728;SDS011;41633;39.720;2.910;2023-05-07T07:20:54;6.55;;;1.80;;
55728;SDS011;41633;39.720;2.910;2023-05-07T07:23:20;5.40;;;1.88;;
55728;SDS011;41633;39.720;2.910;2023-05-07T07:25:47;6.50;;;2.10;;
55728;SDS011;41633;39.720;2.910;2023-05-07T07:28:14;8.45;;;2.00;;
55728;SDS011;41633;39.720;2.910;2023-05-07T07:30:41;7.03;;;1.92;;
55728;SDS011;41633;39.720;2.910;2023-05-07T07:33:07;5.50;;;1.90;;
55728;SDS011;41633;39.720;2.910;2023-05-07T07:35:33;5.88;;;1.98;;
55728;SDS011;41633;39.720;2.910;2023-05-07T07:37:59;6.85;;;1.80;;
55728;SDS011;41633;39.720;2.910;2023-05-07T07:40:26;6.88;;;1.92;;
55728;SDS011;41633;39.720;2.910;2023-05-07T07:42:53;6.22;;;1.85;;
55728;SDS011;41633;39.720;2.910;2023-05-07T07:45:19;5.68;;;1.83;;
55728;SDS011;41633;39.720;2.910;2023-05-07T07:47:45;5.50;;;1.75;;
55728;SDS011;41633;39.720;2.910;2023-05-07T07:50:11;8.15;;;2.15;;
55728;SDS011;41633;39.720;2.910;2023-05-07T07:52:38;6.03;;;1.83;;
55728;SDS011;41633;39.720;2.910;2023-05-07T07:55:04;6.97;;;2.05;;
55728;SDS011;41633;39.720;2.910;2023-05-07T07:57:30;7.22;;;1.88;;
55728;SDS011;41633;39.720;2.910;2023-05-07T07:59:56;6.32;;;1.92;;
55728;SDS011;41633;39.720;2.910;2023-05-07T08:02:23;10.77;;;2.13;;
55728;SDS011;41633;39.720;2.910;2023-05-07T08:04:49;6.13;;;1.92;;
55728;SDS011;41633;39.720;2.910;2023-05-07T08:07:15;8.88;;;2.00;;
55728;SDS011;41633;39.720;2.910;2023-05-07T08:09:43;7.13;;;2.22;;
55728;SDS011;41633;39.720;2.910;2023-05-07T08:12:09;8.75;;;2.00;;
55728;SDS011;41633;39.720;2.910;2023-05-07T08:14:35;5.82;;;1.73;;
55728;SDS011;41633;39.720;2.910;2023-05-07T08:17:02;7.75;;;2.00;;
55728;SDS011;41633;39.720;2.910;2023-05-07T08:19:28;9.93;;;1.98;;
55728;SDS011;41633;39.720;2.910;2023-05-07T08:21:55;7.60;;;1.90;;
55728;SDS011;41633;39.720;2.910;2023-05-07T08:24:21;5.88;;;1.90;;
55728;SDS011;41633;39.720;2.910;2023-05-07T08:26:48;6.43;;;2.03;;
55728;SDS011;41633;39.720;2.910;2023-05-07T08:29:14;7.45;;;2.25;;
55728;SDS011;41633;39.720;2.910;2023-05-07T08:31:41;8.10;;;2.20;;
55728;SDS011;41633;39.720;2.910;2023-05-07T08:34:07;6.40;;;2.00;;
55728;SDS011;41633;39.720;2.910;2023-05-07T08:36:33;8.05;;;2.67;;
55728;SDS011;41633;39.720;2.910;2023-05-07T08:38:59;7.18;;;2.22;;
55728;SDS011;41633;39.720;2.910;2023-05-07T08:41:26;6.45;;;1.95;;
55728;SDS011;41633;39.720;2.910;2023-05-07T08:43:52;7.55;;;3.10;;
55728;SDS011;41633;39.720;2.910;2023-05-07T08:46:20;5.70;;;1.98;;
55728;SDS011;41633;39.720;2.910;2023-05-07T08:48:49;4.30;;;1.50;;
55728;SDS011;41633;39.720;2.910;2023-05-07T08:51:17;6.45;;;1.73;;
55728;SDS011;41633;39.720;2.910;2023-05-07T08:53:43;5.18;;;1.40;;
55728;SDS011;41633;39.720;2.910;2023-05-07T08:56:10;6.60;;;1.80;;
55728;SDS011;41633;39.720;2.910;2023-05-07T08:58:37;4.35;;;1.63;;
55728;SDS011;41633;39.720;2.910;2023-05-07T09:01:06;5.75;;;1.98;;
55728;SDS011;41633;39.720;2.910;2023-05-07T09:03:33;4.90;;;1.40;;
55728;SDS011;41633;39.720;2.910;2023-05-07T09:05:59;4.88;;;1.38;;
55728;SDS011;41633;39.720;2.910;2023-05-07T09:08:26;6.65;;;1.65;;
55728;SDS011;41633;39.720;2.910;2023-05-07T09:10:52;6.85;;;1.58;;
55728;SDS011;41633;39.720;2.910;2023-05-07T09:13:19;5.13;;;1.65;;
55728;SDS011;41633;39.720;2.910;2023-05-07T09:15:45;4.65;;;1.50;;
55728;SDS011;41633;39.720;2.910;2023-05-07T09:18:12;4.97;;;1.60;;
55728;SDS011;41633;39.720;2.910;2023-05-07T09:20:38;5.07;;;1.60;;
55728;SDS011;41633;39.720;2.910;2023-05-07T09:23:08;4.60;;;1.48;;
55728;SDS011;41633;39.720;2.910;2023-05-07T09:25:35;3.45;;;1.27;;
55728;SDS011;41633;39.720;2.910;2023-05-07T09:28:07;8.85;;;2.03;;
55728;SDS011;41633;39.720;2.910;2023-05-07T09:30:35;6.70;;;2.05;;
55728;SDS011;41633;39.720;2.910;2023-05-07T09:33:02;9.30;;;2.50;;
55728;SDS011;41633;39.720;2.910;2023-05-07T09:35:29;7.65;;;2.22;;
55728;SDS011;41633;39.720;2.910;2023-05-07T09:37:56;10.18;;;3.22;;
55728;SDS011;41633;39.720;2.910;2023-05-07T09:40:23;9.20;;;3.50;;
55728;SDS011;41633;39.720;2.910;2023-05-07T09:42:50;9.48;;;2.90;;
55728;SDS011;41633;39.720;2.910;2023-05-07T09:45:16;6.22;;;1.85;;
55728;SDS011;41633;39.720;2.910;2023-05-07T09:47:46;9.13;;;3.88;;
55728;SDS011;41633;39.720;2.910;2023-05-07T09:50:14;5.57;;;1.75;;
55728;SDS011;41633;39.720;2.910;2023-05-07T09:52:41;7.03;;;2.15;;
55728;SDS011;41633;39.720;2.910;2023-05-07T09:55:08;7.45;;;2.75;;
55728;SDS011;41633;39.720;2.910;2023-05-07T09:57:35;6.75;;;2.20;;
55728;SDS011;41633;39.720;2.910;2023-05-07T10:00:02;6.32;;;1.90;;
55728;SDS011;41633;39.720;2.910;2023-05-07T10:02:33;6.75;;;2.35;;
55728;SDS011;41633;39.720;2.910;2023-05-07T10:05:01;5.95;;;1.90;;
55728;SDS011;41633;39.720;2.910;2023-05-07T10:07:28;8.07;;;2.33;;
55728;SDS011;41633;39.720;2.910;2023-05-07T10:09:55;8.68;;;2.35;;
55728;SDS011;41633;39.720;2.910;2023-05-07T10:12:21;9.25;;;2.17;;
55728;SDS011;41633;39.720;2.910;2023-05-07T10:14:47;8.82;;;2.10;;
55728;SDS011;41633;39.720;2.910;2023-05-07T10:17:15;7.18;;;2.20;;
55728;SDS011;41633;39.720;2.910;2023-05-07T10:19:44;6.78;;;2.28;;
55728;SDS011;41633;39.720;2.910;2023-05-07T10:22:10;7.28;;;2.28;;
55728;SDS011;41633;39.720;2.910;2023-05-07T10:24:37;6.93;;;1.80;;
55728;SDS011;41633;39.720;2.910;2023-05-07T10:27:08;6.25;;;2.00;;
55728;SDS011;41633;39.720;2.910;2023-05-07T10:34:29;9.93;;;3.13;;
55728;SDS011;41633;39.720;2.910;2023-05-07T10:36:58;7.82;;;2.30;;
55728;SDS011;41633;39.720;2.910;2023-05-07T10:39:24;7.45;;;2.28;;
55728;SDS011;41633;39.720;2.910;2023-05-07T10:41:51;7.57;;;2.60;;
55728;SDS011;41633;39.720;2.910;2023-05-07T10:44:27;9.05;;;2.33;;
55728;SDS011;41633;39.720;2.910;2023-05-07T10:47:03;8.45;;;1.90;;
55728;SDS011;41633;39.720;2.910;2023-05-07T10:49:30;7.07;;;1.90;;
55728;SDS011;41633;39.720;2.910;2023-05-07T10:52:18;5.57;;;1.77;;
55728;SDS011;41633;39.720;2.910;2023-05-07T10:59:56;8.55;;;1.52;;
55728;SDS011;41633;39.720;2.910;2023-05-07T11:02:22;8.38;;;2.15;;
55728;SDS011;41633;39.720;2.910;2023-05-07T11:07:33;5.88;;;1.77;;
55728;SDS011;41633;39.720;2.910;2023-05-07T11:09:59;7.40;;;2.00;;
55728;SDS011;41633;39.720;2.910;2023-05-07T11:15:05;6.35;;;1.90;;
55728;SDS011;41633;39.720;2.910;2023-05-07T11:17:32;5.95;;;2.30;;
55728;SDS011;41633;39.720;2.910;2023-05-07T11:19:59;6.22;;;2.10;;
55728;SDS011;41633;39.720;2.910;2023-05-07T11:25:02;5.68;;;1.85;;
55728;SDS011;41633;39.720;2.910;2023-05-07T11:27:28;7.00;;;2.20;;
55728;SDS011;41633;39.720;2.910;2023-05-07T11:29:55;6.30;;;2.10;;
55728;SDS011;41633;39.720;2.910;2023-05-07T11:32:27;8.70;;;2.30;;
55728;SDS011;41633;39.720;2.910;2023-05-07T11:34:54;5.82;;;1.98;;
55728;SDS011;41633;39.720;2.910;2023-05-07T11:37:20;4.97;;;1.65;;
55728;SDS011;41633;39.720;2.910;2023-05-07T11:39:47;4.95;;;1.45;;
55728;SDS011;41633;39.720;2.910;2023-05-07T11:44:52;9.77;;;5.65;;
55728;SDS011;41633;39.720;2.910;2023-05-07T11:47:18;7.72;;;3.00;;
55728;SDS011;41633;39.720;2.910;2023-05-07T11:49:48;7.95;;;3.65;;
55728;SDS011;41633;39.720;2.910;2023-05-07T11:52:16;16.52;;;8.55;;
55728;SDS011;41633;39.720;2.910;2023-05-07T11:54:48;10.45;;;5.45;;
55728;SDS011;41633;39.720;2.910;2023-05-07T11:59:43;11.45;;;7.70;;
55728;SDS011;41633;39.720;2.910;2023-05-07T12:02:10;12.88;;;8.77;;
55728;SDS011;41633;39.720;2.910;2023-05-07T12:04:37;11.13;;;6.53;;
55728;SDS011;41633;39.720;2.910;2023-05-07T12:07:04;16.60;;;7.35;;
55728;SDS011;41633;39.720;2.910;2023-05-07T12:09:32;14.38;;;7.38;;
55728;SDS011;41633;39.720;2.910;2023-05-07T12:12:02;10.30;;;4.85;;
55728;SDS011;41633;39.720;2.910;2023-05-07T12:14:29;15.18;;;9.85;;
55728;SDS011;41633;39.720;2.910;2023-05-07T12:16:55;35.25;;;26.45;;
55728;SDS011;41633;39.720;2.910;2023-05-07T12:19:21;20.50;;;15.23;;
55728;SDS011;41633;39.720;2.910;2023-05-07T12:21:48;20.27;;;14.18;;
55728;SDS011;41633;39.720;2.910;2023-05-07T12:24:14;17.83;;;12.90;;
55728;SDS011;41633;39.720;2.910;2023-05-07T12:26:40;14.57;;;10.02;;
55728;SDS011;41633;39.720;2.910;2023-05-07T12:29:07;14.77;;;9.48;;
55728;SDS011;41633;39.720;2.910;2023-05-07T12:31:33;15.25;;;8.70;;
55728;SDS011;41633;39.720;2.910;2023-05-07T12:33:59;15.07;;;8.73;;
55728;SDS011;41633;39.720;2.910;2023-05-07T12:36:25;15.63;;;9.88;;
55728;SDS011;41633;39.720;2.910;2023-05-07T12:38:52;14.95;;;8.43;;
55728;SDS011;41633;39.720;2.910;2023-05-07T12:41:20;13.52;;;7.80;;
55728;SDS011;41633;39.720;2.910;2023-05-07T12:43:50;11.98;;;5.25;;
55728;SDS011;41633;39.720;2.910;2023-05-07T12:46:22;10.23;;;4.20;;
55728;SDS011;41633;39.720;2.910;2023-05-07T12:48:48;9.35;;;3.20;;
55728;SDS011;41633;39.720;2.910;2023-05-07T12:51:15;8.65;;;3.08;;
55728;SDS011;41633;39.720;2.910;2023-05-07T12:53:41;7.78;;;2.78;;
55728;SDS011;41633;39.720;2.910;2023-05-07T12:56:08;7.57;;;2.13;;
55728;SDS011;41633;39.720;2.910;2023-05-07T12:58:35;7.65;;;2.50;;
55728;SDS011;41633;39.720;2.910;2023-05-07T13:01:04;9.38;;;4.00;;
55728;SDS011;41633;39.720;2.910;2023-05-07T13:03:31;12.48;;;2.60;;
55728;SDS011;41633;39.720;2.910;2023-05-07T13:05:58;6.03;;;2.00;;
55728;SDS011;41633;39.720;2.910;2023-05-07T13:10:58;5.93;;;1.85;;
55728;SDS011;41633;39.720;2.910;2023-05-07T13:13:25;4.57;;;1.55;;
55728;SDS011;41633;39.720;2.910;2023-05-07T13:15:51;6.05;;;1.80;;
55728;SDS011;41633;39.720;2.910;2023-05-07T13:18:17;7.22;;;1.98;;
55728;SDS011;41633;39.720;2.910;2023-05-07T13:20:44;5.05;;;1.40;;
55728;SDS011;41633;39.720;2.910;2023-05-07T13:23:10;7.57;;;1.90;;
55728;SDS011;41633;39.720;2.910;2023-05-07T13:25:36;6.53;;;1.75;;
55728;SDS011;41633;39.720;2.910;2023-05-07T13:28:02;6.65;;;2.00;;
55728;SDS011;41633;39.720;2.910;2023-05-07T13:30:29;6.63;;;1.50;;
55728;SDS011;41633;39.720;2.910;2023-05-07T13:32:56;6.05;;;1.80;;
55728;SDS011;41633;39.720;2.910;2023-05-07T13:35:22;4.65;;;1.50;;
55728;SDS011;41633;39.720;2.910;2023-05-07T13:37:48;6.43;;;1.67;;
55728;SDS011;41633;39.720;2.910;2023-05-07T13:40:14;5.93;;;1.50;;
55728;SDS011;41633;39.720;2.910;2023-05-07T13:42:41;7.05;;;1.50;;
55728;SDS011;41633;39.720;2.910;2023-05-07T13:45:07;9.27;;;1.52;;
55728;SDS011;41633;39.720;2.910;2023-05-07T13:47:34;9.68;;;1.77;;
55728;SDS011;41633;39.720;2.910;2023-05-07T13:50:00;6.97;;;1.63;;
55728;SDS011;41633;39.720;2.910;2023-05-07T13:52:26;6.07;;;1.98;;
55728;SDS011;41633;39.720;2.910;2023-05-07T13:54:52;4.65;;;1.55;;
55728;SDS011;41633;39.720;2.910;2023-05-07T13:57:20;7.78;;;1.95;;
55728;SDS011;41633;39.720;2.910;2023-05-07T13:59:46;6.25;;;1.85;;
55728;SDS011;41633;39.720;2.910;2023-05-07T14:02:12;5.90;;;1.40;;
55728;SDS011;41633;39.720;2.910;2023-05-07T14:04:38;7.10;;;1.95;;
55728;SDS011;41633;39.720;2.910;2023-05-07T14:07:04;5.10;;;1.65;;
55728;SDS011;41633;39.720;2.910;2023-05-07T14:09:31;8.65;;;2.10;;
55728;SDS011;41633;39.720;2.910;2023-05-07T14:11:58;4.50;;;1.38;;
55728;SDS011;41633;39.720;2.910;2023-05-07T14:14:24;5.95;;;1.52;;
55728;SDS011;41633;39.720;2.910;2023-05-07T14:16:50;5.80;;;1.60;;
55728;SDS011;41633;39.720;2.910;2023-05-07T14:19:16;5.95;;;1.65;;
55728;SDS011;41633;39.720;2.910;2023-05-07T14:21:42;4.30;;;1.40;;
55728;SDS011;41633;39.720;2.910;2023-05-07T14:24:08;8.95;;;1.60;;
55728;SDS011;41633;39.720;2.910;2023-05-07T14:26:35;5.43;;;1.70;;
55728;SDS011;41633;39.720;2.910;2023-05-07T14:29:01;5.93;;;1.33;;
55728;SDS011;41633;39.720;2.910;2023-05-07T14:31:27;6.53;;;1.70;;
55728;SDS011;41633;39.720;2.910;2023-05-07T14:33:54;9.00;;;1.63;;
55728;SDS011;41633;39.720;2.910;2023-05-07T14:36:22;4.90;;;1.40;;
55728;SDS011;41633;39.720;2.910;2023-05-07T14:38:51;3.85;;;1.30;;
55728;SDS011;41633;39.720;2.910;2023-05-07T14:41:18;5.78;;;1.48;;
55728;SDS011;41633;39.720;2.910;2023-05-07T14:43:44;5.57;;;1.50;;
55728;SDS011;41633;39.720;2.910;2023-05-07T14:46:15;4.50;;;1.40;;
55728;SDS011;41633;39.720;2.910;2023-05-07T14:48:42;4.15;;;1.20;;
55728;SDS011;41633;39.720;2.910;2023-05-07T14:51:09;4.68;;;1.42;;
55728;SDS011;41633;39.720;2.910;2023-05-07T14:53:35;5.68;;;1.40;;
55728;SDS011;41633;39.720;2.910;2023-05-07T14:56:02;6.10;;;1.75;;
55728;SDS011;41633;39.720;2.910;2023-05-07T14:58:28;8.85;;;1.70;;
55728;SDS011;41633;39.720;2.910;2023-05-07T15:00:54;6.40;;;1.70;;
55728;SDS011;41633;39.720;2.910;2023-05-07T15:03:20;5.97;;;1.40;;
55728;SDS011;41633;39.720;2.910;2023-05-07T15:05:46;4.38;;;1.40;;
55728;SDS011;41633;39.720;2.910;2023-05-07T15:08:13;4.88;;;1.50;;